sensor_id;sensor_type;location;lat;lon;timestamp;P1;durP1;ratioP1;P2;durP2;ratioP2
11996;SDS011;6058;48.704;9.474;2024-02-21T00:00:14;5.40;;;3.43;;
11996;SDS011;6058;48.704;9.474;2024-02-21T00:02:42;8.03;;;3.40;;
11996;SDS011;6058;48.704;9.474;2024-02-21T00:05:09;6.33;;;3.37;;
11996;SDS011;6058;48.704;9.474;2024-02-21T00:07:37;7.00;;;3.30;;
11996;SDS011;6058;48.704;9.474;2024-02-21T00:10:04;4.50;;;3.20;;
11996;SDS011;6058;48.704;9.474;2024-02-21T00:12:33;7.03;;;3.83;;
11996;SDS011;6058;48.704;9.474;2024-02-21T00:15:00;8.27;;;3.63;;
11996;SDS011;6058;48.704;9.474;2024-02-21T00:17:28;8.93;;;3.93;;
11996;SDS011;6058;48.704;9.474;2024-02-21T00:19:55;6.83;;;3.43;;
11996;SDS011;6058;48.704;9.474;2024-02-21T00:22:22;5.03;;;3.13;;
11996;SDS011;6058;48.704;9.474;2024-02-21T00:24:49;8.53;;;4.53;;
11996;SDS011;6058;48.704;9.474;2024-02-21T00:27:17;8.13;;;3.83;;
11996;SDS011;6058;48.704;9.474;2024-02-21T00:29:45;7.50;;;3.00;;
11996;SDS011;6058;48.704;9.474;2024-02-21T00:32:12;9.37;;;3.80;;
11996;SDS011;6058;48.704;9.474;2024-02-21T00:34:39;6.20;;;3.80;;
11996;SDS011;6058;48.704;9.474;2024-02-21T00:37:07;6.20;;;4.20;;
11996;SDS011;6058;48.704;9.474;2024-02-21T00:39:34;6.80;;;3.23;;
11996;SDS011;6058;48.704;9.474;2024-02-21T00:42:02;5.73;;;3.80;;
11996;SDS011;6058;48.704;9.474;2024-02-21T00:44:29;4.90;;;3.83;;
11996;SDS011;6058;48.704;9.474;2024-02-21T00:46:57;6.70;;;3.67;;
11996;SDS011;6058;48.704;9.474;2024-02-21T00:49:24;6.63;;;3.23;;
11996;SDS011;6058;48.704;9.474;2024-02-21T00:51:52;9.97;;;3.20;;
11996;SDS011;6058;48.704;9.474;2024-02-21T00:54:19;5.13;;;3.03;;
11996;SDS011;6058;48.704;9.474;2024-02-21T00:56:46;6.00;;;3.10;;
11996;SDS011;6058;48.704;9.474;2024-02-21T00:59:13;7.83;;;4.20;;
11996;SDS011;6058;48.704;9.474;2024-02-21T01:01:40;7.03;;;3.50;;
11996;SDS011;6058;48.704;9.474;2024-02-21T01:04:09;6.43;;;3.47;;
11996;SDS011;6058;48.704;9.474;2024-02-21T01:06:36;4.83;;;3.20;;
11996;SDS011;6058;48.704;9.474;2024-02-21T01:09:03;7.47;;;3.80;;
11996;SDS011;6058;48.704;9.474;2024-02-21T01:11:31;5.03;;;3.10;;
11996;SDS011;6058;48.704;9.474;2024-02-21T01:13:58;6.27;;;3.50;;
11996;SDS011;6058;48.704;9.474;2024-02-21T01:16:25;7.87;;;3.40;;
11996;SDS011;6058;48.704;9.474;2024-02-21T01:18:52;7.80;;;4.03;;
11996;SDS011;6058;48.704;9.474;2024-02-21T01:21:21;9.10;;;4.47;;
11996;SDS011;6058;48.704;9.474;2024-02-21T01:23:48;6.43;;;3.80;;
11996;SDS011;6058;48.704;9.474;2024-02-21T01:26:15;5.67;;;3.87;;
11996;SDS011;6058;48.704;9.474;2024-02-21T01:28:43;5.67;;;3.50;;
11996;SDS011;6058;48.704;9.474;2024-02-21T01:31:10;5.33;;;3.67;;
11996;SDS011;6058;48.704;9.474;2024-02-21T01:33:38;6.00;;;3.63;;
11996;SDS011;6058;48.704;9.474;2024-02-21T01:36:05;5.97;;;3.60;;
11996;SDS011;6058;48.704;9.474;2024-02-21T01:38:34;6.00;;;3.30;;
11996;SDS011;6058;48.704;9.474;2024-02-21T01:41:01;7.30;;;3.93;;
11996;SDS011;6058;48.704;9.474;2024-02-21T01:43:28;4.53;;;3.33;;
11996;SDS011;6058;48.704;9.474;2024-02-21T01:45:55;7.47;;;3.57;;
11996;SDS011;6058;48.704;9.474;2024-02-21T01:48:23;7.07;;;3.40;;
11996;SDS011;6058;48.704;9.474;2024-02-21T01:50:51;6.80;;;4.07;;
11996;SDS011;6058;48.704;9.474;2024-02-21T01:53:19;7.20;;;3.83;;
11996;SDS011;6058;48.704;9.474;2024-02-21T01:55:48;8.37;;;3.90;;
11996;SDS011;6058;48.704;9.474;2024-02-21T01:58:16;4.80;;;3.67;;
11996;SDS011;6058;48.704;9.474;2024-02-21T02:00:44;7.67;;;4.23;;
11996;SDS011;6058;48.704;9.474;2024-02-21T02:03:11;6.73;;;4.03;;
11996;SDS011;6058;48.704;9.474;2024-02-21T02:05:42;5.27;;;3.90;;
11996;SDS011;6058;48.704;9.474;2024-02-21T02:08:09;5.97;;;3.60;;
11996;SDS011;6058;48.704;9.474;2024-02-21T02:10:36;5.50;;;3.77;;
11996;SDS011;6058;48.704;9.474;2024-02-21T02:13:05;5.00;;;3.57;;
11996;SDS011;6058;48.704;9.474;2024-02-21T02:15:37;6.57;;;3.80;;
11996;SDS011;6058;48.704;9.474;2024-02-21T02:18:05;6.37;;;3.47;;
11996;SDS011;6058;48.704;9.474;2024-02-21T02:20:32;5.20;;;4.27;;
11996;SDS011;6058;48.704;9.474;2024-02-21T02:22:59;7.63;;;4.67;;
11996;SDS011;6058;48.704;9.474;2024-02-21T02:25:28;5.80;;;3.80;;
11996;SDS011;6058;48.704;9.474;2024-02-21T02:27:55;8.93;;;3.70;;
11996;SDS011;6058;48.704;9.474;2024-02-21T02:30:22;6.07;;;4.20;;
11996;SDS011;6058;48.704;9.474;2024-02-21T02:32:49;6.80;;;4.23;;
11996;SDS011;6058;48.704;9.474;2024-02-21T02:35:18;5.57;;;3.50;;
11996;SDS011;6058;48.704;9.474;2024-02-21T02:37:48;5.27;;;3.53;;
11996;SDS011;6058;48.704;9.474;2024-02-21T02:40:15;5.80;;;3.57;;
11996;SDS011;6058;48.704;9.474;2024-02-21T02:42:44;6.50;;;3.53;;
11996;SDS011;6058;48.704;9.474;2024-02-21T02:45:14;7.03;;;4.07;;
11996;SDS011;6058;48.704;9.474;2024-02-21T02:47:41;6.20;;;3.73;;
11996;SDS011;6058;48.704;9.474;2024-02-21T02:50:08;5.80;;;3.63;;
11996;SDS011;6058;48.704;9.474;2024-02-21T02:52:35;5.97;;;3.30;;
11996;SDS011;6058;48.704;9.474;2024-02-21T02:55:03;5.97;;;3.57;;
11996;SDS011;6058;48.704;9.474;2024-02-21T02:57:31;6.67;;;4.03;;
11996;SDS011;6058;48.704;9.474;2024-02-21T02:59:59;6.40;;;3.43;;
11996;SDS011;6058;48.704;9.474;2024-02-21T03:02:26;6.73;;;3.53;;
11996;SDS011;6058;48.704;9.474;2024-02-21T03:04:54;5.07;;;3.20;;
11996;SDS011;6058;48.704;9.474;2024-02-21T03:07:21;9.70;;;4.20;;
11996;SDS011;6058;48.704;9.474;2024-02-21T03:09:48;9.17;;;3.40;;
11996;SDS011;6058;48.704;9.474;2024-02-21T03:12:15;4.67;;;3.37;;
11996;SDS011;6058;48.704;9.474;2024-02-21T03:14:49;5.47;;;4.10;;
11996;SDS011;6058;48.704;9.474;2024-02-21T03:17:18;6.27;;;3.40;;
11996;SDS011;6058;48.704;9.474;2024-02-21T03:19:45;7.60;;;3.67;;
11996;SDS011;6058;48.704;9.474;2024-02-21T03:22:13;4.27;;;3.30;;
11996;SDS011;6058;48.704;9.474;2024-02-21T03:24:41;7.63;;;3.77;;
11996;SDS011;6058;48.704;9.474;2024-02-21T03:27:08;8.53;;;3.80;;
11996;SDS011;6058;48.704;9.474;2024-02-21T03:29:35;7.57;;;3.80;;
11996;SDS011;6058;48.704;9.474;2024-02-21T03:32:03;9.03;;;3.83;;
11996;SDS011;6058;48.704;9.474;2024-02-21T03:34:31;7.57;;;3.70;;
11996;SDS011;6058;48.704;9.474;2024-02-21T03:36:59;4.87;;;3.63;;
11996;SDS011;6058;48.704;9.474;2024-02-21T03:39:26;5.80;;;3.57;;
11996;SDS011;6058;48.704;9.474;2024-02-21T03:41:53;6.87;;;3.27;;
11996;SDS011;6058;48.704;9.474;2024-02-21T03:44:20;6.57;;;3.40;;
11996;SDS011;6058;48.704;9.474;2024-02-21T03:46:47;9.57;;;4.10;;
11996;SDS011;6058;48.704;9.474;2024-02-21T03:49:15;5.93;;;3.77;;
11996;SDS011;6058;48.704;9.474;2024-02-21T03:51:44;6.33;;;3.90;;
11996;SDS011;6058;48.704;9.474;2024-02-21T03:54:11;9.07;;;4.03;;
11996;SDS011;6058;48.704;9.474;2024-02-21T03:56:38;6.20;;;3.90;;
11996;SDS011;6058;48.704;9.474;2024-02-21T03:59:06;4.77;;;3.50;;
11996;SDS011;6058;48.704;9.474;2024-02-21T04:01:33;9.87;;;3.93;;
11996;SDS011;6058;48.704;9.474;2024-02-21T04:04:00;7.57;;;4.53;;
11996;SDS011;6058;48.704;9.474;2024-02-21T04:06:27;4.53;;;3.47;;
11996;SDS011;6058;48.704;9.474;2024-02-21T04:08:56;8.10;;;4.20;;
11996;SDS011;6058;48.704;9.474;2024-02-21T04:11:23;6.57;;;4.20;;
11996;SDS011;6058;48.704;9.474;2024-02-21T04:13:50;6.57;;;4.30;;
11996;SDS011;6058;48.704;9.474;2024-02-21T04:16:18;6.83;;;4.33;;
11996;SDS011;6058;48.704;9.474;2024-02-21T04:18:45;7.60;;;4.87;;
11996;SDS011;6058;48.704;9.474;2024-02-21T04:21:14;5.73;;;4.00;;
11996;SDS011;6058;48.704;9.474;2024-02-21T04:23:41;8.73;;;4.37;;
11996;SDS011;6058;48.704;9.474;2024-02-21T04:26:10;6.53;;;4.00;;
11996;SDS011;6058;48.704;9.474;2024-02-21T04:28:37;8.77;;;4.33;;
11996;SDS011;6058;48.704;9.474;2024-02-21T04:31:04;8.47;;;4.37;;
11996;SDS011;6058;48.704;9.474;2024-02-21T04:33:31;6.23;;;3.77;;
11996;SDS011;6058;48.704;9.474;2024-02-21T04:35:59;6.57;;;4.60;;
11996;SDS011;6058;48.704;9.474;2024-02-21T04:38:27;6.87;;;3.90;;
11996;SDS011;6058;48.704;9.474;2024-02-21T04:40:54;6.40;;;4.00;;
11996;SDS011;6058;48.704;9.474;2024-02-21T04:43:24;6.30;;;3.87;;
11996;SDS011;6058;48.704;9.474;2024-02-21T04:45:53;8.30;;;4.10;;
11996;SDS011;6058;48.704;9.474;2024-02-21T04:48:21;7.33;;;4.00;;
11996;SDS011;6058;48.704;9.474;2024-02-21T04:50:48;5.57;;;3.90;;
11996;SDS011;6058;48.704;9.474;2024-02-21T04:53:15;4.60;;;3.80;;
11996;SDS011;6058;48.704;9.474;2024-02-21T04:55:42;8.10;;;4.47;;
11996;SDS011;6058;48.704;9.474;2024-02-21T04:58:09;8.50;;;4.97;;
11996;SDS011;6058;48.704;9.474;2024-02-21T05:00:38;10.90;;;4.77;;
11996;SDS011;6058;48.704;9.474;2024-02-21T05:03:05;10.03;;;4.90;;
11996;SDS011;6058;48.704;9.474;2024-02-21T05:05:32;6.77;;;4.20;;
11996;SDS011;6058;48.704;9.474;2024-02-21T05:08:00;9.33;;;4.83;;
11996;SDS011;6058;48.704;9.474;2024-02-21T05:10:27;7.00;;;4.20;;
11996;SDS011;6058;48.704;9.474;2024-02-21T05:12:56;6.93;;;4.27;;
11996;SDS011;6058;48.704;9.474;2024-02-21T05:15:23;7.70;;;4.67;;
11996;SDS011;6058;48.704;9.474;2024-02-21T05:17:51;9.30;;;4.73;;
11996;SDS011;6058;48.704;9.474;2024-02-21T05:20:18;12.10;;;5.00;;
11996;SDS011;6058;48.704;9.474;2024-02-21T05:22:46;6.60;;;5.00;;
11996;SDS011;6058;48.704;9.474;2024-02-21T05:25:13;11.70;;;4.40;;
11996;SDS011;6058;48.704;9.474;2024-02-21T05:27:40;6.00;;;4.43;;
11996;SDS011;6058;48.704;9.474;2024-02-21T05:30:08;6.50;;;4.67;;
11996;SDS011;6058;48.704;9.474;2024-02-21T05:32:35;8.03;;;4.80;;
11996;SDS011;6058;48.704;9.474;2024-02-21T05:35:03;8.77;;;4.70;;
11996;SDS011;6058;48.704;9.474;2024-02-21T05:37:31;8.87;;;4.60;;
11996;SDS011;6058;48.704;9.474;2024-02-21T05:39:58;5.87;;;4.53;;
11996;SDS011;6058;48.704;9.474;2024-02-21T05:42:25;9.77;;;5.13;;
11996;SDS011;6058;48.704;9.474;2024-02-21T05:44:52;9.47;;;4.70;;
11996;SDS011;6058;48.704;9.474;2024-02-21T05:47:19;7.73;;;4.13;;
11996;SDS011;6058;48.704;9.474;2024-02-21T05:49:46;4.43;;;3.73;;
11996;SDS011;6058;48.704;9.474;2024-02-21T05:52:15;10.57;;;7.10;;
11996;SDS011;6058;48.704;9.474;2024-02-21T05:54:42;6.07;;;4.80;;
11996;SDS011;6058;48.704;9.474;2024-02-21T05:57:09;11.13;;;7.00;;
11996;SDS011;6058;48.704;9.474;2024-02-21T05:59:37;10.70;;;8.17;;
11996;SDS011;6058;48.704;9.474;2024-02-21T06:02:06;9.67;;;6.10;;
11996;SDS011;6058;48.704;9.474;2024-02-21T06:04:34;11.00;;;6.13;;
11996;SDS011;6058;48.704;9.474;2024-02-21T06:07:01;7.70;;;6.90;;
11996;SDS011;6058;48.704;9.474;2024-02-21T06:09:29;9.60;;;5.77;;
11996;SDS011;6058;48.704;9.474;2024-02-21T06:11:57;9.87;;;5.33;;
11996;SDS011;6058;48.704;9.474;2024-02-21T06:14:24;8.20;;;6.50;;
11996;SDS011;6058;48.704;9.474;2024-02-21T06:16:51;5.30;;;4.80;;
11996;SDS011;6058;48.704;9.474;2024-02-21T06:19:18;8.67;;;6.50;;
11996;SDS011;6058;48.704;9.474;2024-02-21T06:21:45;8.30;;;5.47;;
11996;SDS011;6058;48.704;9.474;2024-02-21T06:24:12;7.43;;;5.60;;
11996;SDS011;6058;48.704;9.474;2024-02-21T06:26:41;10.10;;;5.60;;
11996;SDS011;6058;48.704;9.474;2024-02-21T06:29:08;8.57;;;5.30;;
11996;SDS011;6058;48.704;9.474;2024-02-21T06:31:35;7.63;;;4.57;;
11996;SDS011;6058;48.704;9.474;2024-02-21T06:34:03;6.77;;;4.40;;
11996;SDS011;6058;48.704;9.474;2024-02-21T06:36:30;6.47;;;4.77;;
11996;SDS011;6058;48.704;9.474;2024-02-21T06:38:58;11.30;;;5.93;;
11996;SDS011;6058;48.704;9.474;2024-02-21T06:41:25;8.03;;;4.77;;
11996;SDS011;6058;48.704;9.474;2024-02-21T06:43:54;5.07;;;3.90;;
11996;SDS011;6058;48.704;9.474;2024-02-21T06:46:24;7.13;;;4.70;;
11996;SDS011;6058;48.704;9.474;2024-02-21T06:48:51;6.53;;;4.20;;
11996;SDS011;6058;48.704;9.474;2024-02-21T06:51:19;5.37;;;4.13;;
11996;SDS011;6058;48.704;9.474;2024-02-21T06:53:46;9.37;;;4.57;;
11996;SDS011;6058;48.704;9.474;2024-02-21T06:56:13;6.47;;;4.50;;
11996;SDS011;6058;48.704;9.474;2024-02-21T06:58:40;9.37;;;4.83;;
11996;SDS011;6058;48.704;9.474;2024-02-21T07:01:08;7.90;;;5.13;;
11996;SDS011;6058;48.704;9.474;2024-02-21T07:03:36;7.23;;;4.40;;
11996;SDS011;6058;48.704;9.474;2024-02-21T07:06:03;5.97;;;3.90;;
11996;SDS011;6058;48.704;9.474;2024-02-21T07:08:30;6.63;;;4.13;;
11996;SDS011;6058;48.704;9.474;2024-02-21T07:10:57;9.30;;;4.27;;
11996;SDS011;6058;48.704;9.474;2024-02-21T07:13:24;6.40;;;4.27;;
11996;SDS011;6058;48.704;9.474;2024-02-21T07:15:51;8.30;;;4.03;;
11996;SDS011;6058;48.704;9.474;2024-02-21T07:18:20;8.93;;;4.50;;
11996;SDS011;6058;48.704;9.474;2024-02-21T07:20:47;9.97;;;4.47;;
11996;SDS011;6058;48.704;9.474;2024-02-21T07:23:14;7.47;;;4.07;;
11996;SDS011;6058;48.704;9.474;2024-02-21T07:25:41;8.40;;;4.90;;
11996;SDS011;6058;48.704;9.474;2024-02-21T07:28:08;7.53;;;4.80;;
11996;SDS011;6058;48.704;9.474;2024-02-21T07:30:36;5.90;;;3.77;;
11996;SDS011;6058;48.704;9.474;2024-02-21T07:33:03;5.93;;;3.93;;
11996;SDS011;6058;48.704;9.474;2024-02-21T07:35:33;7.47;;;3.90;;
11996;SDS011;6058;48.704;9.474;2024-02-21T07:38:02;7.10;;;4.30;;
11996;SDS011;6058;48.704;9.474;2024-02-21T07:40:30;5.43;;;4.30;;
11996;SDS011;6058;48.704;9.474;2024-02-21T07:42:57;7.83;;;4.43;;
11996;SDS011;6058;48.704;9.474;2024-02-21T07:45:24;10.77;;;6.07;;
11996;SDS011;6058;48.704;9.474;2024-02-21T07:47:51;7.43;;;4.20;;
11996;SDS011;6058;48.704;9.474;2024-02-21T07:50:18;6.00;;;4.10;;
11996;SDS011;6058;48.704;9.474;2024-02-21T07:52:47;9.30;;;4.33;;
11996;SDS011;6058;48.704;9.474;2024-02-21T07:55:14;7.07;;;3.73;;
11996;SDS011;6058;48.704;9.474;2024-02-21T07:57:41;8.30;;;4.60;;
11996;SDS011;6058;48.704;9.474;2024-02-21T08:00:08;6.50;;;4.13;;
11996;SDS011;6058;48.704;9.474;2024-02-21T08:02:40;6.67;;;4.30;;
11996;SDS011;6058;48.704;9.474;2024-02-21T08:05:08;7.77;;;5.07;;
11996;SDS011;6058;48.704;9.474;2024-02-21T08:07:37;7.33;;;4.47;;
11996;SDS011;6058;48.704;9.474;2024-02-21T08:10:06;9.13;;;4.57;;
11996;SDS011;6058;48.704;9.474;2024-02-21T08:12:34;6.77;;;3.93;;
11996;SDS011;6058;48.704;9.474;2024-02-21T08:15:01;8.10;;;4.40;;
11996;SDS011;6058;48.704;9.474;2024-02-21T08:17:29;9.40;;;4.47;;
11996;SDS011;6058;48.704;9.474;2024-02-21T08:19:56;7.93;;;4.47;;
11996;SDS011;6058;48.704;9.474;2024-02-21T08:22:23;10.03;;;5.23;;
11996;SDS011;6058;48.704;9.474;2024-02-21T08:24:51;10.70;;;5.70;;
11996;SDS011;6058;48.704;9.474;2024-02-21T08:27:19;8.63;;;4.67;;
11996;SDS011;6058;48.704;9.474;2024-02-21T08:29:47;8.80;;;4.33;;
11996;SDS011;6058;48.704;9.474;2024-02-21T08:32:14;6.70;;;4.13;;
11996;SDS011;6058;48.704;9.474;2024-02-21T08:34:41;7.57;;;4.13;;
11996;SDS011;6058;48.704;9.474;2024-02-21T08:37:08;7.07;;;4.53;;
11996;SDS011;6058;48.704;9.474;2024-02-21T08:39:35;6.10;;;3.97;;
11996;SDS011;6058;48.704;9.474;2024-02-21T08:42:03;7.57;;;4.00;;
11996;SDS011;6058;48.704;9.474;2024-02-21T08:44:31;6.07;;;3.83;;
11996;SDS011;6058;48.704;9.474;2024-02-21T08:46:58;6.40;;;4.40;;
11996;SDS011;6058;48.704;9.474;2024-02-21T08:49:28;7.20;;;3.77;;
11996;SDS011;6058;48.704;9.474;2024-02-21T08:51:56;5.53;;;3.70;;
11996;SDS011;6058;48.704;9.474;2024-02-21T08:54:23;6.43;;;3.43;;
11996;SDS011;6058;48.704;9.474;2024-02-21T08:56:50;5.93;;;3.40;;
11996;SDS011;6058;48.704;9.474;2024-02-21T08:59:17;7.63;;;3.53;;
11996;SDS011;6058;48.704;9.474;2024-02-21T09:01:47;5.77;;;3.47;;
11996;SDS011;6058;48.704;9.474;2024-02-21T09:04:14;4.77;;;3.30;;
11996;SDS011;6058;48.704;9.474;2024-02-21T09:06:41;6.60;;;3.60;;
11996;SDS011;6058;48.704;9.474;2024-02-21T09:09:08;4.60;;;2.80;;
11996;SDS011;6058;48.704;9.474;2024-02-21T09:11:35;7.50;;;3.00;;
11996;SDS011;6058;48.704;9.474;2024-02-21T09:14:03;8.13;;;3.10;;
11996;SDS011;6058;48.704;9.474;2024-02-21T09:16:30;8.37;;;3.37;;
11996;SDS011;6058;48.704;9.474;2024-02-21T09:18:59;7.63;;;3.87;;
11996;SDS011;6058;48.704;9.474;2024-02-21T09:21:26;4.60;;;2.90;;
11996;SDS011;6058;48.704;9.474;2024-02-21T09:23:54;7.70;;;3.40;;
11996;SDS011;6058;48.704;9.474;2024-02-21T09:26:21;7.60;;;2.80;;
11996;SDS011;6058;48.704;9.474;2024-02-21T09:28:48;7.43;;;3.37;;
11996;SDS011;6058;48.704;9.474;2024-02-21T09:31:16;4.27;;;2.73;;
11996;SDS011;6058;48.704;9.474;2024-02-21T09:33:43;4.63;;;2.70;;
11996;SDS011;6058;48.704;9.474;2024-02-21T09:36:12;7.17;;;3.03;;
11996;SDS011;6058;48.704;9.474;2024-02-21T09:38:39;9.53;;;3.17;;
11996;SDS011;6058;48.704;9.474;2024-02-21T09:41:14;5.83;;;3.10;;
11996;SDS011;6058;48.704;9.474;2024-02-21T09:43:42;7.03;;;3.00;;
11996;SDS011;6058;48.704;9.474;2024-02-21T09:46:12;5.23;;;2.80;;
11996;SDS011;6058;48.704;9.474;2024-02-21T09:48:42;4.73;;;2.80;;
11996;SDS011;6058;48.704;9.474;2024-02-21T09:51:13;7.67;;;3.03;;
11996;SDS011;6058;48.704;9.474;2024-02-21T09:53:41;5.23;;;2.70;;
11996;SDS011;6058;48.704;9.474;2024-02-21T09:56:08;5.30;;;2.60;;
11996;SDS011;6058;48.704;9.474;2024-02-21T09:58:36;5.97;;;2.93;;
11996;SDS011;6058;48.704;9.474;2024-02-21T10:01:03;4.33;;;2.60;;
11996;SDS011;6058;48.704;9.474;2024-02-21T10:03:31;6.13;;;2.53;;
11996;SDS011;6058;48.704;9.474;2024-02-21T10:05:59;4.37;;;2.37;;
11996;SDS011;6058;48.704;9.474;2024-02-21T10:08:28;5.40;;;2.40;;
11996;SDS011;6058;48.704;9.474;2024-02-21T10:10:55;6.40;;;3.10;;
11996;SDS011;6058;48.704;9.474;2024-02-21T10:13:25;8.27;;;2.90;;
11996;SDS011;6058;48.704;9.474;2024-02-21T10:16:02;5.20;;;2.93;;
11996;SDS011;6058;48.704;9.474;2024-02-21T10:18:29;9.37;;;2.67;;
11996;SDS011;6058;48.704;9.474;2024-02-21T10:21:00;4.30;;;2.40;;
11996;SDS011;6058;48.704;9.474;2024-02-21T10:23:29;5.40;;;2.97;;
11996;SDS011;6058;48.704;9.474;2024-02-21T10:26:04;4.67;;;2.50;;
11996;SDS011;6058;48.704;9.474;2024-02-21T10:28:32;5.07;;;1.90;;
11996;SDS011;6058;48.704;9.474;2024-02-21T10:30:59;6.97;;;2.10;;
11996;SDS011;6058;48.704;9.474;2024-02-21T10:33:26;4.90;;;1.90;;
11996;SDS011;6058;48.704;9.474;2024-02-21T10:35:55;5.00;;;2.03;;
11996;SDS011;6058;48.704;9.474;2024-02-21T10:38:34;4.67;;;1.97;;
11996;SDS011;6058;48.704;9.474;2024-02-21T10:41:01;4.43;;;2.13;;
11996;SDS011;6058;48.704;9.474;2024-02-21T10:43:30;6.03;;;2.20;;
11996;SDS011;6058;48.704;9.474;2024-02-21T10:45:58;3.50;;;1.80;;
11996;SDS011;6058;48.704;9.474;2024-02-21T10:48:29;4.47;;;1.80;;
11996;SDS011;6058;48.704;9.474;2024-02-21T10:51:11;5.97;;;1.87;;
11996;SDS011;6058;48.704;9.474;2024-02-21T10:53:44;4.43;;;1.67;;
11996;SDS011;6058;48.704;9.474;2024-02-21T10:56:16;3.33;;;1.53;;
11996;SDS011;6058;48.704;9.474;2024-02-21T10:58:43;3.43;;;1.67;;
11996;SDS011;6058;48.704;9.474;2024-02-21T11:01:11;6.80;;;2.00;;
11996;SDS011;6058;48.704;9.474;2024-02-21T11:03:40;2.83;;;2.10;;
11996;SDS011;6058;48.704;9.474;2024-02-21T11:06:08;5.23;;;1.83;;
11996;SDS011;6058;48.704;9.474;2024-02-21T11:08:36;3.47;;;1.80;;
11996;SDS011;6058;48.704;9.474;2024-02-21T11:11:05;3.47;;;1.60;;
11996;SDS011;6058;48.704;9.474;2024-02-21T11:13:34;4.37;;;1.60;;
11996;SDS011;6058;48.704;9.474;2024-02-21T11:16:08;1.70;;;1.50;;
11996;SDS011;6058;48.704;9.474;2024-02-21T11:18:36;2.77;;;1.90;;
11996;SDS011;6058;48.704;9.474;2024-02-21T11:21:03;3.23;;;1.57;;
11996;SDS011;6058;48.704;9.474;2024-02-21T11:23:31;2.43;;;1.70;;
11996;SDS011;6058;48.704;9.474;2024-02-21T11:26:06;4.57;;;1.70;;
11996;SDS011;6058;48.704;9.474;2024-02-21T11:28:34;5.60;;;1.67;;
11996;SDS011;6058;48.704;9.474;2024-02-21T11:31:08;2.73;;;1.50;;
11996;SDS011;6058;48.704;9.474;2024-02-21T11:33:38;3.93;;;1.63;;
11996;SDS011;6058;48.704;9.474;2024-02-21T11:36:06;3.80;;;1.33;;
11996;SDS011;6058;48.704;9.474;2024-02-21T11:38:33;2.07;;;1.43;;
11996;SDS011;6058;48.704;9.474;2024-02-21T11:41:01;3.00;;;1.27;;
11996;SDS011;6058;48.704;9.474;2024-02-21T11:43:29;4.63;;;1.20;;
11996;SDS011;6058;48.704;9.474;2024-02-21T11:45:59;3.27;;;1.57;;
11996;SDS011;6058;48.704;9.474;2024-02-21T11:48:28;4.23;;;1.77;;
11996;SDS011;6058;48.704;9.474;2024-02-21T11:50:56;2.83;;;1.27;;
11996;SDS011;6058;48.704;9.474;2024-02-21T11:53:23;4.43;;;1.90;;
11996;SDS011;6058;48.704;9.474;2024-02-21T11:55:55;3.67;;;1.20;;
11996;SDS011;6058;48.704;9.474;2024-02-21T11:58:22;6.73;;;1.53;;
11996;SDS011;6058;48.704;9.474;2024-02-21T12:00:51;2.03;;;1.23;;
11996;SDS011;6058;48.704;9.474;2024-02-21T12:03:18;2.07;;;1.10;;
11996;SDS011;6058;48.704;9.474;2024-02-21T12:05:46;3.33;;;1.73;;
11996;SDS011;6058;48.704;9.474;2024-02-21T12:08:13;2.97;;;1.23;;
11996;SDS011;6058;48.704;9.474;2024-02-21T12:10:41;4.00;;;1.43;;
11996;SDS011;6058;48.704;9.474;2024-02-21T12:13:14;3.00;;;1.67;;
11996;SDS011;6058;48.704;9.474;2024-02-21T12:15:41;3.13;;;1.40;;
11996;SDS011;6058;48.704;9.474;2024-02-21T12:18:11;2.93;;;1.83;;
11996;SDS011;6058;48.704;9.474;2024-02-21T12:20:38;3.90;;;1.40;;
11996;SDS011;6058;48.704;9.474;2024-02-21T12:23:08;3.70;;;1.47;;
11996;SDS011;6058;48.704;9.474;2024-02-21T12:25:36;2.57;;;1.80;;
11996;SDS011;6058;48.704;9.474;2024-02-21T12:28:04;3.07;;;1.20;;
11996;SDS011;6058;48.704;9.474;2024-02-21T12:30:32;3.37;;;1.47;;
11996;SDS011;6058;48.704;9.474;2024-02-21T12:33:00;1.83;;;1.10;;
11996;SDS011;6058;48.704;9.474;2024-02-21T12:35:29;1.57;;;1.20;;
11996;SDS011;6058;48.704;9.474;2024-02-21T12:37:58;1.73;;;1.23;;
11996;SDS011;6058;48.704;9.474;2024-02-21T12:40:25;3.53;;;1.27;;
11996;SDS011;6058;48.704;9.474;2024-02-21T12:42:57;2.13;;;1.50;;
11996;SDS011;6058;48.704;9.474;2024-02-21T12:45:24;2.83;;;1.43;;
11996;SDS011;6058;48.704;9.474;2024-02-21T12:47:51;2.50;;;1.70;;
11996;SDS011;6058;48.704;9.474;2024-02-21T12:50:18;1.80;;;1.33;;
11996;SDS011;6058;48.704;9.474;2024-02-21T12:52:49;3.20;;;1.53;;
11996;SDS011;6058;48.704;9.474;2024-02-21T12:55:16;3.73;;;1.23;;
11996;SDS011;6058;48.704;9.474;2024-02-21T12:57:43;6.40;;;1.43;;
11996;SDS011;6058;48.704;9.474;2024-02-21T13:00:10;2.20;;;1.30;;
11996;SDS011;6058;48.704;9.474;2024-02-21T13:02:39;1.77;;;1.27;;
11996;SDS011;6058;48.704;9.474;2024-02-21T13:05:06;3.70;;;1.63;;
11996;SDS011;6058;48.704;9.474;2024-02-21T13:07:33;3.67;;;1.37;;
11996;SDS011;6058;48.704;9.474;2024-02-21T13:10:02;3.90;;;1.60;;
11996;SDS011;6058;48.704;9.474;2024-02-21T13:12:30;4.23;;;1.20;;
11996;SDS011;6058;48.704;9.474;2024-02-21T13:14:57;3.43;;;1.47;;
11996;SDS011;6058;48.704;9.474;2024-02-21T13:17:24;1.37;;;1.07;;
11996;SDS011;6058;48.704;9.474;2024-02-21T13:19:58;4.17;;;1.50;;
11996;SDS011;6058;48.704;9.474;2024-02-21T13:22:25;5.33;;;1.50;;
11996;SDS011;6058;48.704;9.474;2024-02-21T13:24:52;1.60;;;1.40;;
11996;SDS011;6058;48.704;9.474;2024-02-21T13:27:21;3.07;;;1.37;;
11996;SDS011;6058;48.704;9.474;2024-02-21T13:29:48;2.73;;;1.40;;
11996;SDS011;6058;48.704;9.474;2024-02-21T13:32:15;3.03;;;1.53;;
11996;SDS011;6058;48.704;9.474;2024-02-21T13:34:42;4.37;;;1.40;;
11996;SDS011;6058;48.704;9.474;2024-02-21T13:37:09;6.23;;;1.63;;
11996;SDS011;6058;48.704;9.474;2024-02-21T13:39:38;3.53;;;1.40;;
11996;SDS011;6058;48.704;9.474;2024-02-21T13:42:22;4.97;;;1.70;;
11996;SDS011;6058;48.704;9.474;2024-02-21T13:51:49;3.13;;;1.77;;
11996;SDS011;6058;48.704;9.474;2024-02-21T14:00:23;2.40;;;1.60;;
11996;SDS011;6058;48.704;9.474;2024-02-21T14:02:53;4.03;;;2.00;;
11996;SDS011;6058;48.704;9.474;2024-02-21T14:08:30;4.67;;;1.40;;
11996;SDS011;6058;48.704;9.474;2024-02-21T14:11:15;3.17;;;1.37;;
11996;SDS011;6058;48.704;9.474;2024-02-21T14:14:01;4.40;;;1.73;;
11996;SDS011;6058;48.704;9.474;2024-02-21T14:19:30;1.77;;;1.60;;
11996;SDS011;6058;48.704;9.474;2024-02-21T14:24:44;5.67;;;1.50;;
11996;SDS011;6058;48.704;9.474;2024-02-21T14:25:07;1.63;;;1.50;;
11996;SDS011;6058;48.704;9.474;2024-02-21T14:27:55;3.10;;;1.53;;
11996;SDS011;6058;48.704;9.474;2024-02-21T14:31:04;3.37;;;1.70;;
11996;SDS011;6058;48.704;9.474;2024-02-21T14:34:07;4.93;;;1.60;;
11996;SDS011;6058;48.704;9.474;2024-02-21T14:37:01;4.07;;;1.43;;
11996;SDS011;6058;48.704;9.474;2024-02-21T14:39:52;3.83;;;1.67;;
11996;SDS011;6058;48.704;9.474;2024-02-21T14:42:49;2.17;;;1.50;;
11996;SDS011;6058;48.704;9.474;2024-02-21T14:45:52;4.77;;;1.47;;
11996;SDS011;6058;48.704;9.474;2024-02-21T14:48:26;3.13;;;1.70;;
11996;SDS011;6058;48.704;9.474;2024-02-21T14:51:03;3.40;;;1.80;;
11996;SDS011;6058;48.704;9.474;2024-02-21T14:56:38;5.10;;;2.27;;
11996;SDS011;6058;48.704;9.474;2024-02-21T14:59:15;5.40;;;2.00;;
11996;SDS011;6058;48.704;9.474;2024-02-21T15:01:51;1.67;;;1.57;;
11996;SDS011;6058;48.704;9.474;2024-02-21T15:04:19;3.07;;;1.60;;
11996;SDS011;6058;48.704;9.474;2024-02-21T15:06:48;4.10;;;1.80;;
11996;SDS011;6058;48.704;9.474;2024-02-21T15:09:22;5.07;;;2.00;;
11996;SDS011;6058;48.704;9.474;2024-02-21T15:15:12;2.50;;;2.17;;
11996;SDS011;6058;48.704;9.474;2024-02-21T15:17:49;3.17;;;1.80;;
11996;SDS011;6058;48.704;9.474;2024-02-21T15:20:24;2.33;;;1.73;;
11996;SDS011;6058;48.704;9.474;2024-02-21T15:25:43;2.53;;;1.70;;
11996;SDS011;6058;48.704;9.474;2024-02-21T15:26:12;4.47;;;1.83;;
11996;SDS011;6058;48.704;9.474;2024-02-21T15:28:50;5.60;;;1.93;;
11996;SDS011;6058;48.704;9.474;2024-02-21T15:37:29;3.57;;;1.77;;
11996;SDS011;6058;48.704;9.474;2024-02-21T15:40:09;4.00;;;1.70;;
11996;SDS011;6058;48.704;9.474;2024-02-21T15:42:41;4.03;;;1.90;;